ΕΜΥ, Εθνική Μετεωρολογική Υπηρεσία - Δελτία Καιρού, Προγνώσεις

ΑΕΡΟΝΑΥΤΙΛΙΑ

GREEK AIRPORTS CODES

LGTT 071300Z 02026G43KT 9999 FEW018 SCT025 12/05 Q1020 RMK SCT080=

EUROPEAN AIRPORTS CODES

LFPO 071330Z AUTO 09009KT 060V120 CAVOK 22/09 Q1026=